sensor_id;sensor_type;location;lat;lon;timestamp;pressure;altitude;pressure_sealevel;temperature;humidity
27304;BME280;14791;52.392;13.092;2022-09-09T00:00:23;100607.80;;;20.58;61.00
27304;BME280;14791;52.392;13.092;2022-09-09T00:03:19;100602.05;;;20.57;60.97
27304;BME280;14791;52.392;13.092;2022-09-09T00:05:46;100606.63;;;20.57;60.88
27304;BME280;14791;52.392;13.092;2022-09-09T00:08:19;100604.37;;;20.52;60.94
27304;BME280;14791;52.392;13.092;2022-09-09T00:10:52;100606.72;;;20.51;60.94
27304;BME280;14791;52.392;13.092;2022-09-09T00:13:39;100603.16;;;20.51;60.92
27304;BME280;14791;52.392;13.092;2022-09-09T00:16:25;100611.96;;;20.49;60.85
27304;BME280;14791;52.392;13.092;2022-09-09T00:19:01;100607.38;;;20.45;60.88
27304;BME280;14791;52.392;13.092;2022-09-09T00:22:07;100607.69;;;20.42;60.85
27304;BME280;14791;52.392;13.092;2022-09-09T00:24:43;100602.59;;;20.39;60.73
27304;BME280;14791;52.392;13.092;2022-09-09T00:27:19;100596.30;;;20.34;60.68
27304;BME280;14791;52.392;13.092;2022-09-09T00:30:13;100597.83;;;20.33;60.65
27304;BME280;14791;52.392;13.092;2022-09-09T00:32:29;100594.42;;;20.31;60.62
27304;BME280;14791;52.392;13.092;2022-09-09T00:35:04;100601.02;;;20.28;60.68
27304;BME280;14791;52.392;13.092;2022-09-09T00:37:34;100595.59;;;20.28;60.66
27304;BME280;14791;52.392;13.092;2022-09-09T00:40:11;100592.70;;;20.26;60.58
27304;BME280;14791;52.392;13.092;2022-09-09T00:42:42;100591.68;;;20.27;60.60
27304;BME280;14791;52.392;13.092;2022-09-09T00:48:14;100594.88;;;20.22;60.53
27304;BME280;14791;52.392;13.092;2022-09-09T00:50:56;100591.62;;;20.14;60.56
27304;BME280;14791;52.392;13.092;2022-09-09T00:53:38;100592.13;;;20.14;60.55
27304;BME280;14791;52.392;13.092;2022-09-09T00:56:20;100589.23;;;20.11;60.68
27304;BME280;14791;52.392;13.092;2022-09-09T01:01:35;100595.28;;;20.05;60.63
27304;BME280;14791;52.392;13.092;2022-09-09T01:04:08;100591.55;;;20.02;60.67
27304;BME280;14791;52.392;13.092;2022-09-09T01:06:37;100596.13;;;20.02;60.63
27304;BME280;14791;52.392;13.092;2022-09-09T01:12:09;100600.34;;;20.00;60.59
27304;BME280;14791;52.392;13.092;2022-09-09T01:17:49;100605.68;;;19.92;60.83
27304;BME280;14791;52.392;13.092;2022-09-09T01:28:35;100603.54;;;19.78;60.86
27304;BME280;14791;52.392;13.092;2022-09-09T01:31:07;100605.55;;;19.71;60.89
27304;BME280;14791;52.392;13.092;2022-09-09T01:33:39;100609.94;;;19.72;60.92
27304;BME280;14791;52.392;13.092;2022-09-09T01:36:17;100610.30;;;19.73;60.92
27304;BME280;14791;52.392;13.092;2022-09-09T01:38:42;100603.87;;;19.74;60.85
27304;BME280;14791;52.392;13.092;2022-09-09T01:41:11;100610.64;;;19.74;60.82
27304;BME280;14791;52.392;13.092;2022-09-09T01:43:44;100610.13;;;19.75;60.79
27304;BME280;14791;52.392;13.092;2022-09-09T01:46:13;100608.30;;;19.75;60.73
27304;BME280;14791;52.392;13.092;2022-09-09T01:48:43;100607.27;;;19.76;60.72
27304;BME280;14791;52.392;13.092;2022-09-09T01:51:15;100606.77;;;19.77;60.65
27304;BME280;14791;52.392;13.092;2022-09-09T01:53:45;100603.54;;;19.78;60.57
27304;BME280;14791;52.392;13.092;2022-09-09T02:02:25;100602.14;;;19.69;60.69
27304;BME280;14791;52.392;13.092;2022-09-09T02:07:51;100605.09;;;19.62;60.72
27304;BME280;14791;52.392;13.092;2022-09-09T02:10:37;100602.34;;;19.58;60.76
27304;BME280;14791;52.392;13.092;2022-09-09T02:13:10;100600.98;;;19.58;60.75
27304;BME280;14791;52.392;13.092;2022-09-09T02:18:17;100612.19;;;19.59;60.66
27304;BME280;14791;52.392;13.092;2022-09-09T02:20:48;100612.33;;;19.58;60.63
27304;BME280;14791;52.392;13.092;2022-09-09T02:23:17;100613.17;;;19.58;60.61
27304;BME280;14791;52.392;13.092;2022-09-09T02:25:49;100608.12;;;19.59;60.60
27304;BME280;14791;52.392;13.092;2022-09-09T02:28:23;100612.52;;;19.60;60.52
27304;BME280;14791;52.392;13.092;2022-09-09T02:30:53;100609.81;;;19.60;60.50
27304;BME280;14791;52.392;13.092;2022-09-09T02:33:30;100609.48;;;19.59;60.44
27304;BME280;14791;52.392;13.092;2022-09-09T02:36:00;100611.67;;;19.60;60.39
27304;BME280;14791;52.392;13.092;2022-09-09T02:38:34;100608.12;;;19.59;60.34
27304;BME280;14791;52.392;13.092;2022-09-09T02:41:05;100609.11;;;19.58;60.31
27304;BME280;14791;52.392;13.092;2022-09-09T02:43:35;100606.22;;;19.55;60.26
27304;BME280;14791;52.392;13.092;2022-09-09T02:49:18;100605.88;;;19.54;60.19
27304;BME280;14791;52.392;13.092;2022-09-09T02:52:06;100610.41;;;19.50;60.30
27304;BME280;14791;52.392;13.092;2022-09-09T02:54:40;100611.72;;;19.46;60.35
27304;BME280;14791;52.392;13.092;2022-09-09T02:57:20;100608.96;;;19.42;60.37
27304;BME280;14791;52.392;13.092;2022-09-09T02:59:50;100609.14;;;19.40;60.31
27304;BME280;14791;52.392;13.092;2022-09-09T03:02:21;100621.47;;;19.39;60.30
27304;BME280;14791;52.392;13.092;2022-09-09T03:04:51;100622.83;;;19.39;60.20
27304;BME280;14791;52.392;13.092;2022-09-09T03:07:20;100621.47;;;19.39;60.14
27304;BME280;14791;52.392;13.092;2022-09-09T03:09:50;100625.02;;;19.39;60.15
27304;BME280;14791;52.392;13.092;2022-09-09T03:12:20;100627.73;;;19.39;60.10
27304;BME280;14791;52.392;13.092;2022-09-09T03:14:49;100622.83;;;19.39;60.04
27304;BME280;14791;52.392;13.092;2022-09-09T03:17:18;100623.33;;;19.38;59.94
27304;BME280;14791;52.392;13.092;2022-09-09T03:19:49;100620.77;;;19.37;59.91
27304;BME280;14791;52.392;13.092;2022-09-09T03:22:19;100620.06;;;19.34;59.93
27304;BME280;14791;52.392;13.092;2022-09-09T03:24:49;100619.73;;;19.33;59.92
27304;BME280;14791;52.392;13.092;2022-09-09T03:27:19;100633.27;;;19.33;59.91
27304;BME280;14791;52.392;13.092;2022-09-09T03:29:48;100638.35;;;19.32;59.84
27304;BME280;14791;52.392;13.092;2022-09-09T03:32:20;100637.98;;;19.31;59.77
27304;BME280;14791;52.392;13.092;2022-09-09T03:34:50;100636.30;;;19.30;59.75
27304;BME280;14791;52.392;13.092;2022-09-09T03:37:20;100625.61;;;19.29;59.75
27304;BME280;14791;52.392;13.092;2022-09-09T03:39:50;100635.59;;;19.28;59.71
27304;BME280;14791;52.392;13.092;2022-09-09T03:42:22;100637.59;;;19.26;59.72
27304;BME280;14791;52.392;13.092;2022-09-09T03:44:52;100633.20;;;19.25;59.72
27304;BME280;14791;52.392;13.092;2022-09-09T03:47:23;100638.25;;;19.24;59.73
27304;BME280;14791;52.392;13.092;2022-09-09T03:49:54;100633.85;;;19.23;59.73
27304;BME280;14791;52.392;13.092;2022-09-09T03:52:23;100636.19;;;19.22;59.71
27304;BME280;14791;52.392;13.092;2022-09-09T03:54:54;100630.95;;;19.21;59.71
27304;BME280;14791;52.392;13.092;2022-09-09T03:57:24;100623.81;;;19.20;59.71
27304;BME280;14791;52.392;13.092;2022-09-09T03:59:53;100622.97;;;19.19;59.67
27304;BME280;14791;52.392;13.092;2022-09-09T04:02:22;100622.63;;;19.18;59.69
27304;BME280;14791;52.392;13.092;2022-09-09T04:04:51;100623.98;;;19.18;59.62
27304;BME280;14791;52.392;13.092;2022-09-09T04:07:20;100627.68;;;19.17;59.52
27304;BME280;14791;52.392;13.092;2022-09-09T04:09:49;100627.68;;;19.17;59.52
27304;BME280;14791;52.392;13.092;2022-09-09T04:12:19;100629.55;;;19.17;59.52
27304;BME280;14791;52.392;13.092;2022-09-09T04:14:48;100627.86;;;19.16;59.48
27304;BME280;14791;52.392;13.092;2022-09-09T04:17:17;100635.09;;;19.15;59.47
27304;BME280;14791;52.392;13.092;2022-09-09T04:19:47;100636.12;;;19.14;59.41
27304;BME280;14791;52.392;13.092;2022-09-09T04:22:16;100640.18;;;19.14;59.40
27304;BME280;14791;52.392;13.092;2022-09-09T04:24:45;100643.53;;;19.12;59.37
27304;BME280;14791;52.392;13.092;2022-09-09T04:27:14;100644.05;;;19.11;59.36
27304;BME280;14791;52.392;13.092;2022-09-09T04:29:43;100641.48;;;19.10;59.35
27304;BME280;14791;52.392;13.092;2022-09-09T04:32:13;100647.54;;;19.08;59.36
27304;BME280;14791;52.392;13.092;2022-09-09T04:34:42;100651.59;;;19.08;59.35
27304;BME280;14791;52.392;13.092;2022-09-09T04:37:12;100644.16;;;19.06;59.40
27304;BME280;14791;52.392;13.092;2022-09-09T04:39:41;100650.42;;;19.06;59.43
27304;BME280;14791;52.392;13.092;2022-09-09T04:42:10;100646.87;;;19.06;59.51
27304;BME280;14791;52.392;13.092;2022-09-09T04:44:40;100650.93;;;19.06;59.61
27304;BME280;14791;52.392;13.092;2022-09-09T04:47:09;100649.91;;;19.07;59.62
27304;BME280;14791;52.392;13.092;2022-09-09T04:49:38;100653.64;;;19.06;59.67
27304;BME280;14791;52.392;13.092;2022-09-09T04:52:07;100654.48;;;19.06;59.68
27304;BME280;14791;52.392;13.092;2022-09-09T04:54:36;100658.37;;;19.08;59.75
27304;BME280;14791;52.392;13.092;2022-09-09T04:57:06;100665.50;;;19.09;59.80
27304;BME280;14791;52.392;13.092;2022-09-09T04:59:35;100664.48;;;19.10;59.84
27304;BME280;14791;52.392;13.092;2022-09-09T05:02:05;100662.15;;;19.11;59.85
27304;BME280;14791;52.392;13.092;2022-09-09T05:04:34;100660.80;;;19.11;59.85
27304;BME280;14791;52.392;13.092;2022-09-09T05:07:03;100661.50;;;19.13;59.85
27304;BME280;14791;52.392;13.092;2022-09-09T05:09:32;100664.55;;;19.14;59.87
27304;BME280;14791;52.392;13.092;2022-09-09T05:12:01;100662.54;;;19.16;59.91
27304;BME280;14791;52.392;13.092;2022-09-09T05:14:33;100650.55;;;19.19;59.99
27304;BME280;14791;52.392;13.092;2022-09-09T05:17:05;100656.81;;;19.19;60.05
27304;BME280;14791;52.392;13.092;2022-09-09T05:19:34;100661.91;;;19.22;60.11
27304;BME280;14791;52.392;13.092;2022-09-09T05:22:03;100651.08;;;19.22;60.14
27304;BME280;14791;52.392;13.092;2022-09-09T05:24:34;100651.64;;;19.26;60.20
27304;BME280;14791;52.392;13.092;2022-09-09T05:27:05;100645.58;;;19.28;60.21
27304;BME280;14791;52.392;13.092;2022-09-09T05:29:34;100647.13;;;19.30;60.21
27304;BME280;14791;52.392;13.092;2022-09-09T05:32:04;100659.70;;;19.36;60.20
27304;BME280;14791;52.392;13.092;2022-09-09T05:34:33;100658.03;;;19.39;60.23
27304;BME280;14791;52.392;13.092;2022-09-09T05:37:02;100661.77;;;19.42;60.25
27304;BME280;14791;52.392;13.092;2022-09-09T05:39:32;100659.11;;;19.46;60.28
27304;BME280;14791;52.392;13.092;2022-09-09T05:42:01;100664.58;;;19.50;60.32
27304;BME280;14791;52.392;13.092;2022-09-09T05:44:33;100670.89;;;19.54;60.30
27304;BME280;14791;52.392;13.092;2022-09-09T05:47:03;100669.03;;;19.55;60.34
27304;BME280;14791;52.392;13.092;2022-09-09T05:49:31;100667.07;;;19.61;60.37
27304;BME280;14791;52.392;13.092;2022-09-09T05:52:00;100669.80;;;19.65;60.45
27304;BME280;14791;52.392;13.092;2022-09-09T05:54:31;100663.44;;;19.70;60.53
27304;BME280;14791;52.392;13.092;2022-09-09T05:57:01;100671.09;;;19.75;60.57
27304;BME280;14791;52.392;13.092;2022-09-09T05:59:29;100683.19;;;19.81;60.60
27304;BME280;14791;52.392;13.092;2022-09-09T06:02:00;100684.92;;;19.86;60.56
27304;BME280;14791;52.392;13.092;2022-09-09T06:04:33;100689.38;;;19.91;60.52
27304;BME280;14791;52.392;13.092;2022-09-09T06:07:02;100686.70;;;19.95;60.52
27304;BME280;14791;52.392;13.092;2022-09-09T06:09:31;100677.23;;;19.99;60.48
27304;BME280;14791;52.392;13.092;2022-09-09T06:12:00;100691.86;;;20.06;60.46
27304;BME280;14791;52.392;13.092;2022-09-09T06:14:31;100691.75;;;20.12;60.36
27304;BME280;14791;52.392;13.092;2022-09-09T06:17:00;100702.13;;;20.16;60.20
27304;BME280;14791;52.392;13.092;2022-09-09T06:19:30;100697.59;;;20.21;60.17
27304;BME280;14791;52.392;13.092;2022-09-09T06:22:20;100693.05;;;20.26;60.04
27304;BME280;14791;52.392;13.092;2022-09-09T06:24:49;100700.34;;;20.29;59.99
27304;BME280;14791;52.392;13.092;2022-09-09T06:27:18;100701.23;;;20.34;59.86
27304;BME280;14791;52.392;13.092;2022-09-09T06:29:48;100700.90;;;20.37;59.74
27304;BME280;14791;52.392;13.092;2022-09-09T06:32:17;100700.24;;;20.39;59.59
27304;BME280;14791;52.392;13.092;2022-09-09T06:34:46;100699.25;;;20.40;59.66
27304;BME280;14791;52.392;13.092;2022-09-09T06:37:17;100699.58;;;20.41;59.69
27304;BME280;14791;52.392;13.092;2022-09-09T06:39:48;100690.60;;;20.45;59.87
27304;BME280;14791;52.392;13.092;2022-09-09T06:42:17;100696.58;;;20.48;60.04
27304;BME280;14791;52.392;13.092;2022-09-09T06:44:48;100695.25;;;20.52;60.04
27304;BME280;14791;52.392;13.092;2022-09-09T06:47:18;100697.85;;;20.58;60.00
27304;BME280;14791;52.392;13.092;2022-09-09T06:49:48;100700.92;;;20.63;59.89
27304;BME280;14791;52.392;13.092;2022-09-09T06:52:19;100699.45;;;20.69;59.83
27304;BME280;14791;52.392;13.092;2022-09-09T06:54:48;100699.81;;;20.74;59.83
27304;BME280;14791;52.392;13.092;2022-09-09T06:57:17;100697.80;;;20.80;59.81
27304;BME280;14791;52.392;13.092;2022-09-09T06:59:46;100689.02;;;20.86;59.77
27304;BME280;14791;52.392;13.092;2022-09-09T07:02:16;100690.73;;;20.91;59.76
27304;BME280;14791;52.392;13.092;2022-09-09T07:04:45;100683.63;;;20.98;59.65
27304;BME280;14791;52.392;13.092;2022-09-09T07:07:14;100692.83;;;21.06;59.72
27304;BME280;14791;52.392;13.092;2022-09-09T07:09:44;100689.80;;;21.13;59.65
27304;BME280;14791;52.392;13.092;2022-09-09T07:12:14;100687.97;;;21.21;59.63
27304;BME280;14791;52.392;13.092;2022-09-09T07:14:45;100681.70;;;21.29;59.70
27304;BME280;14791;52.392;13.092;2022-09-09T07:17:13;100691.06;;;21.39;59.43
27304;BME280;14791;52.392;13.092;2022-09-09T07:19:43;100692.99;;;21.51;59.50
27304;BME280;14791;52.392;13.092;2022-09-09T07:22:12;100688.58;;;21.62;59.51
27304;BME280;14791;52.392;13.092;2022-09-09T07:24:41;100695.89;;;21.74;59.52
27304;BME280;14791;52.392;13.092;2022-09-09T07:27:10;100693.02;;;21.83;59.45
27304;BME280;14791;52.392;13.092;2022-09-09T07:29:39;100694.56;;;21.94;59.33
27304;BME280;14791;52.392;13.092;2022-09-09T07:32:09;100699.16;;;22.06;59.17
27304;BME280;14791;52.392;13.092;2022-09-09T07:34:38;100710.70;;;22.16;58.99
27304;BME280;14791;52.392;13.092;2022-09-09T07:37:07;100705.30;;;22.24;58.84
27304;BME280;14791;52.392;13.092;2022-09-09T07:39:38;100705.13;;;22.34;58.78
27304;BME280;14791;52.392;13.092;2022-09-09T07:42:07;100710.02;;;22.43;58.61
27304;BME280;14791;52.392;13.092;2022-09-09T07:44:38;100707.30;;;22.51;58.52
27304;BME280;14791;52.392;13.092;2022-09-09T07:47:09;100711.71;;;22.60;58.35
27304;BME280;14791;52.392;13.092;2022-09-09T07:49:42;100707.08;;;22.69;58.19
27304;BME280;14791;52.392;13.092;2022-09-09T07:52:12;100720.16;;;22.78;58.09
27304;BME280;14791;52.392;13.092;2022-09-09T07:54:45;100725.05;;;22.86;58.09
27304;BME280;14791;52.392;13.092;2022-09-09T07:57:14;100712.59;;;22.96;57.62
27304;BME280;14791;52.392;13.092;2022-09-09T07:59:44;100713.81;;;23.06;57.59
27304;BME280;14791;52.392;13.092;2022-09-09T08:02:13;100726.17;;;23.17;57.48
27304;BME280;14791;52.392;13.092;2022-09-09T08:04:43;100719.30;;;23.29;57.45
27304;BME280;14791;52.392;13.092;2022-09-09T08:07:12;100730.66;;;23.41;57.40
27304;BME280;14791;52.392;13.092;2022-09-09T08:09:43;100730.06;;;23.53;57.03
27304;BME280;14791;52.392;13.092;2022-09-09T08:12:13;100731.39;;;23.62;56.81
27304;BME280;14791;52.392;13.092;2022-09-09T08:14:43;100727.59;;;23.71;56.55
27304;BME280;14791;52.392;13.092;2022-09-09T08:17:11;100730.62;;;23.80;56.23
27304;BME280;14791;52.392;13.092;2022-09-09T08:19:41;100723.06;;;23.86;56.01
27304;BME280;14791;52.392;13.092;2022-09-09T08:22:11;100730.02;;;23.93;55.81
27304;BME280;14791;52.392;13.092;2022-09-09T08:24:40;100731.16;;;23.98;55.61
27304;BME280;14791;52.392;13.092;2022-09-09T08:27:10;100732.12;;;24.06;55.23
27304;BME280;14791;52.392;13.092;2022-09-09T08:29:39;100736.50;;;24.11;54.96
27304;BME280;14791;52.392;13.092;2022-09-09T08:32:08;100730.70;;;24.14;54.79
27304;BME280;14791;52.392;13.092;2022-09-09T08:34:37;100729.64;;;24.19;54.68
27304;BME280;14791;52.392;13.092;2022-09-09T08:37:07;100724.64;;;24.23;54.47
27304;BME280;14791;52.392;13.092;2022-09-09T08:39:38;100725.14;;;24.26;54.45
27304;BME280;14791;52.392;13.092;2022-09-09T08:42:21;100731.58;;;24.29;54.48
27304;BME280;14791;52.392;13.092;2022-09-09T08:50:34;100735.97;;;24.34;54.56
27304;BME280;14791;52.392;13.092;2022-09-09T08:53:27;100749.20;;;24.41;54.66
27304;BME280;14791;52.392;13.092;2022-09-09T08:55:58;100737.27;;;24.43;54.52
27304;BME280;14791;52.392;13.092;2022-09-09T08:58:34;100745.43;;;24.47;54.57
27304;BME280;14791;52.392;13.092;2022-09-09T09:07:21;100749.11;;;24.54;54.17
27304;BME280;14791;52.392;13.092;2022-09-09T09:12:38;100752.80;;;24.61;54.68
27304;BME280;14791;52.392;13.092;2022-09-09T09:15:11;100747.06;;;24.71;54.68
27304;BME280;14791;52.392;13.092;2022-09-09T09:17:38;100746.44;;;24.83;54.57
27304;BME280;14791;52.392;13.092;2022-09-09T09:20:15;100744.23;;;24.98;54.44
27304;BME280;14791;52.392;13.092;2022-09-09T09:22:50;100749.15;;;25.13;54.06
27304;BME280;14791;52.392;13.092;2022-09-09T09:25:31;100748.70;;;25.24;53.85
27304;BME280;14791;52.392;13.092;2022-09-09T09:31:29;100748.24;;;25.46;53.08
27304;BME280;14791;52.392;13.092;2022-09-09T09:33:51;100739.15;;;25.50;52.92
27304;BME280;14791;52.392;13.092;2022-09-09T09:36:24;100735.63;;;25.56;52.68
27304;BME280;14791;52.392;13.092;2022-09-09T09:38:56;100735.19;;;25.63;52.72
27304;BME280;14791;52.392;13.092;2022-09-09T09:44:04;100738.64;;;25.83;52.10
27304;BME280;14791;52.392;13.092;2022-09-09T09:46:35;100732.05;;;25.92;51.93
27304;BME280;14791;52.392;13.092;2022-09-09T09:49:09;100733.92;;;26.02;51.77
27304;BME280;14791;52.392;13.092;2022-09-09T09:51:38;100732.22;;;26.12;51.25
27304;BME280;14791;52.392;13.092;2022-09-09T09:54:24;100729.02;;;26.19;50.80
27304;BME280;14791;52.392;13.092;2022-09-09T09:56:55;100740.03;;;26.26;50.61
27304;BME280;14791;52.392;13.092;2022-09-09T10:02:23;100735.34;;;26.30;49.95
27304;BME280;14791;52.392;13.092;2022-09-09T10:05:08;100741.99;;;26.32;49.74
27304;BME280;14791;52.392;13.092;2022-09-09T10:07:36;100747.22;;;26.27;49.63
27304;BME280;14791;52.392;13.092;2022-09-09T10:10:08;100742.98;;;26.24;49.52
27304;BME280;14791;52.392;13.092;2022-09-09T10:15:31;100750.33;;;26.24;49.57
27304;BME280;14791;52.392;13.092;2022-09-09T10:21:02;100744.95;;;26.20;49.65
27304;BME280;14791;52.392;13.092;2022-09-09T10:26:38;100738.69;;;26.15;49.72
27304;BME280;14791;52.392;13.092;2022-09-09T10:29:13;100738.16;;;26.16;49.83
27304;BME280;14791;52.392;13.092;2022-09-09T10:37:37;100737.45;;;26.18;49.48
27304;BME280;14791;52.392;13.092;2022-09-09T10:42:55;100737.70;;;26.23;49.53
27304;BME280;14791;52.392;13.092;2022-09-09T10:45:33;100733.00;;;26.27;49.59
27304;BME280;14791;52.392;13.092;2022-09-09T10:48:24;100737.48;;;26.35;49.34
27304;BME280;14791;52.392;13.092;2022-09-09T10:50:53;100744.17;;;26.43;49.34
27304;BME280;14791;52.392;13.092;2022-09-09T10:53:51;100742.02;;;26.49;48.82
27304;BME280;14791;52.392;13.092;2022-09-09T10:56:17;100733.55;;;26.55;48.45
27304;BME280;14791;52.392;13.092;2022-09-09T10:58:54;100730.93;;;26.58;48.85
27304;BME280;14791;52.392;13.092;2022-09-09T11:01:37;100738.67;;;26.65;48.58
27304;BME280;14791;52.392;13.092;2022-09-09T11:04:22;100738.20;;;26.72;49.00
27304;BME280;14791;52.392;13.092;2022-09-09T11:06:55;100732.23;;;26.79;48.85
27304;BME280;14791;52.392;13.092;2022-09-09T11:09:27;100730.00;;;26.89;48.80
27304;BME280;14791;52.392;13.092;2022-09-09T11:11:58;100728.19;;;27.03;48.23
27304;BME280;14791;52.392;13.092;2022-09-09T11:17:23;100726.73;;;27.31;47.75
27304;BME280;14791;52.392;13.092;2022-09-09T11:19:52;100726.35;;;27.41;47.75
27304;BME280;14791;52.392;13.092;2022-09-09T11:22:32;100730.41;;;27.52;47.38
27304;BME280;14791;52.392;13.092;2022-09-09T11:35:43;100728.31;;;27.98;46.15
27304;BME280;14791;52.392;13.092;2022-09-09T11:38:24;100728.87;;;28.04;45.98
27304;BME280;14791;52.392;13.092;2022-09-09T11:41:05;100735.41;;;28.10;45.58
27304;BME280;14791;52.392;13.092;2022-09-09T11:43:47;100733.07;;;28.13;44.97
27304;BME280;14791;52.392;13.092;2022-09-09T11:46:13;100728.65;;;28.12;44.68
27304;BME280;14791;52.392;13.092;2022-09-09T11:48:44;100724.83;;;28.13;44.42
27304;BME280;14791;52.392;13.092;2022-09-09T11:53:52;100718.71;;;28.18;44.34
27304;BME280;14791;52.392;13.092;2022-09-09T11:59:20;100714.17;;;28.28;44.07
27304;BME280;14791;52.392;13.092;2022-09-09T12:04:36;100714.07;;;28.32;43.79
27304;BME280;14791;52.392;13.092;2022-09-09T12:07:26;100712.70;;;28.32;43.72
27304;BME280;14791;52.392;13.092;2022-09-09T12:12:38;100713.12;;;28.29;43.59
27304;BME280;14791;52.392;13.092;2022-09-09T12:17:48;100695.72;;;28.26;43.29
27304;BME280;14791;52.392;13.092;2022-09-09T12:20:23;100691.27;;;28.25;43.11
27304;BME280;14791;52.392;13.092;2022-09-09T12:26:07;100698.02;;;28.22;43.03
27304;BME280;14791;52.392;13.092;2022-09-09T12:28:49;100692.09;;;28.25;42.97
27304;BME280;14791;52.392;13.092;2022-09-09T12:31:27;100702.88;;;28.27;43.10
27304;BME280;14791;52.392;13.092;2022-09-09T12:34:46;100684.39;;;28.31;42.81
27304;BME280;14791;52.392;13.092;2022-09-09T12:36:29;100683.02;;;28.38;42.78
27304;BME280;14791;52.392;13.092;2022-09-09T12:39:09;100684.09;;;28.50;42.65
27304;BME280;14791;52.392;13.092;2022-09-09T12:41:31;100690.41;;;28.64;42.35
27304;BME280;14791;52.392;13.092;2022-09-09T12:44:08;100695.22;;;28.75;42.19
27304;BME280;14791;52.392;13.092;2022-09-09T12:46:42;100691.72;;;28.84;42.04
27304;BME280;14791;52.392;13.092;2022-09-09T12:51:56;100699.34;;;28.82;41.70
27304;BME280;14791;52.392;13.092;2022-09-09T12:54:26;100705.37;;;28.75;41.71
27304;BME280;14791;52.392;13.092;2022-09-09T12:56:55;100701.06;;;28.70;41.70
27304;BME280;14791;52.392;13.092;2022-09-09T12:59:38;100703.61;;;28.65;41.74
27304;BME280;14791;52.392;13.092;2022-09-09T13:01:59;100704.45;;;28.58;41.81
27304;BME280;14791;52.392;13.092;2022-09-09T13:04:28;100710.48;;;28.51;42.15
27304;BME280;14791;52.392;13.092;2022-09-09T13:07:07;100712.83;;;28.48;41.97
27304;BME280;14791;52.392;13.092;2022-09-09T13:09:38;100716.72;;;28.42;41.95
27304;BME280;14791;52.392;13.092;2022-09-09T13:12:16;100717.56;;;28.36;42.15
27304;BME280;14791;52.392;13.092;2022-09-09T13:14:43;100714.91;;;28.32;41.99
27304;BME280;14791;52.392;13.092;2022-09-09T13:17:22;100707.73;;;28.25;42.04
27304;BME280;14791;52.392;13.092;2022-09-09T13:19:52;100705.52;;;28.17;42.04
27304;BME280;14791;52.392;13.092;2022-09-09T13:22:31;100703.00;;;28.09;42.63
27304;BME280;14791;52.392;13.092;2022-09-09T13:25:17;100693.18;;;28.04;42.63
27304;BME280;14791;52.392;13.092;2022-09-09T13:27:35;100686.84;;;27.97;42.50
27304;BME280;14791;52.392;13.092;2022-09-09T13:30:34;100683.89;;;27.92;42.42
27304;BME280;14791;52.392;13.092;2022-09-09T13:36:10;100680.28;;;27.98;42.80
27304;BME280;14791;52.392;13.092;2022-09-09T13:38:55;100685.23;;;28.32;43.33
27304;BME280;14791;52.392;13.092;2022-09-09T13:41:29;100676.21;;;28.80;43.55
27304;BME280;14791;52.392;13.092;2022-09-09T13:43:59;100683.66;;;29.25;42.93
27304;BME280;14791;52.392;13.092;2022-09-09T13:46:40;100684.27;;;29.72;42.48
27304;BME280;14791;52.392;13.092;2022-09-09T13:51:44;100671.92;;;30.66;41.33
27304;BME280;14791;52.392;13.092;2022-09-09T13:54:16;100671.02;;;31.09;40.60
27304;BME280;14791;52.392;13.092;2022-09-09T13:56:45;100680.39;;;31.47;39.67
27304;BME280;14791;52.392;13.092;2022-09-09T13:59:16;100681.37;;;31.74;38.41
27304;BME280;14791;52.392;13.092;2022-09-09T14:01:48;100685.19;;;31.94;37.99
27304;BME280;14791;52.392;13.092;2022-09-09T14:04:20;100676.50;;;32.09;37.53
27304;BME280;14791;52.392;13.092;2022-09-09T14:06:50;100679.68;;;32.15;37.35
27304;BME280;14791;52.392;13.092;2022-09-09T14:09:19;100685.81;;;32.17;37.01
27304;BME280;14791;52.392;13.092;2022-09-09T14:11:48;100679.39;;;32.14;36.95
27304;BME280;14791;52.392;13.092;2022-09-09T14:14:17;100686.75;;;32.11;36.82
27304;BME280;14791;52.392;13.092;2022-09-09T14:16:45;100670.72;;;32.10;36.80
27304;BME280;14791;52.392;13.092;2022-09-09T14:19:15;100671.10;;;32.14;36.67
27304;BME280;14791;52.392;13.092;2022-09-09T14:21:44;100677.52;;;32.17;36.28
27304;BME280;14791;52.392;13.092;2022-09-09T14:24:13;100671.22;;;32.19;36.08
27304;BME280;14791;52.392;13.092;2022-09-09T14:26:42;100671.56;;;32.23;36.22
27304;BME280;14791;52.392;13.092;2022-09-09T14:29:10;100672.67;;;32.33;36.28
27304;BME280;14791;52.392;13.092;2022-09-09T14:31:39;100677.87;;;32.44;35.84
27304;BME280;14791;52.392;13.092;2022-09-09T14:34:08;100676.27;;;32.46;35.33
27304;BME280;14791;52.392;13.092;2022-09-09T14:36:38;100680.47;;;32.36;35.20
27304;BME280;14791;52.392;13.092;2022-09-09T14:39:08;100678.42;;;32.20;35.27
27304;BME280;14791;52.392;13.092;2022-09-09T14:41:37;100679.11;;;32.04;35.34
27304;BME280;14791;52.392;13.092;2022-09-09T14:44:06;100681.47;;;31.88;35.64
27304;BME280;14791;52.392;13.092;2022-09-09T14:46:36;100681.22;;;31.78;35.88
27304;BME280;14791;52.392;13.092;2022-09-09T14:49:05;100685.23;;;31.73;36.04
27304;BME280;14791;52.392;13.092;2022-09-09T14:51:33;100677.87;;;31.67;36.15
27304;BME280;14791;52.392;13.092;2022-09-09T14:54:03;100678.30;;;31.61;36.00
27304;BME280;14791;52.392;13.092;2022-09-09T14:56:34;100680.31;;;31.54;36.07
27304;BME280;14791;52.392;13.092;2022-09-09T14:59:03;100677.09;;;31.48;36.20